Time;durP1;ratioP1;P1;durP2;ratioP2;P2;SDS_P1;SDS_P2;PMS_P1;PMS_P2;Temp;Humidity;BMP_temperature;BMP_pressure;BME280_temperature;BME280_humidity;BME280_pressure;Samples;Min_cycle;Max_cycle;Signal;HPM_P1;HPM_P2
2022/06/02 00:01:02;;;;;;;4.93;2.20;;;;;;;;;;5012793;28;20034;-83
2022/06/02 00:03:35;;;;;;;7.38;2.20;;;;;;;;;;5012223;28;20034;-84
2022/06/02 00:06:00;;;;;;;3.97;2.17;;;;;;;;;;5010638;28;20030;-85
2022/06/02 00:08:26;;;;;;;5.15;2.10;;;;;;;;;;4995784;28;20116;-84
2022/06/02 00:11:16;;;;;;;3.65;2.47;;;;;;;;;;4995835;28;20037;-84
2022/06/02 00:13:57;;;;;;;3.97;2.42;;;;;;;;;;5011357;28;20050;-85
2022/06/02 00:16:44;;;;;;;4.55;2.45;;;;;;;;;;4995849;28;20033;-84
2022/06/02 00:19:30;;;;;;;5.45;2.58;;;;;;;;;;5011049;28;20030;-84
2022/06/02 00:22:03;;;;;;;3.10;2.30;;;;;;;;;;5014056;28;20108;-84
2022/06/02 00:24:48;;;;;;;4.43;2.10;;;;;;;;;;4992660;28;20032;-84
2022/06/02 00:27:52;;;;;;;2.60;2.00;;;;;;;;;;5011794;28;20045;-84
2022/06/02 00:30:20;;;;;;;3.78;2.28;;;;;;;;;;4994239;28;20051;-85
2022/06/02 00:33:13;;;;;;;4.22;2.50;;;;;;;;;;5013302;28;20428;-85
2022/06/02 00:35:57;;;;;;;3.00;2.03;;;;;;;;;;4993456;28;20046;-84
2022/06/02 00:38:28;;;;;;;5.45;2.70;;;;;;;;;;5012181;28;20385;-85
2022/06/02 00:40:56;;;;;;;3.30;2.63;;;;;;;;;;4992218;28;20120;-84
2022/06/02 00:43:31;;;;;;;5.60;2.38;;;;;;;;;;5012179;28;20473;-85
2022/06/02 00:46:27;;;;;;;5.38;2.63;;;;;;;;;;4992101;28;20061;-84
2022/06/02 00:49:13;;;;;;;3.85;2.45;;;;;;;;;;5011742;28;20132;-83
2022/06/02 00:52:02;;;;;;;4.15;2.05;;;;;;;;;;5011900;28;20028;-84
2022/06/02 00:58:01;;;;;;;4.63;2.17;;;;;;;;;;5010742;28;20029;-84
2022/06/02 01:00:39;;;;;;;5.70;2.47;;;;;;;;;;4993573;28;20382;-84
2022/06/02 01:03:11;;;;;;;3.83;2.53;;;;;;;;;;5012310;28;20056;-85
2022/06/02 01:06:14;;;;;;;6.03;2.42;;;;;;;;;;5010217;28;20030;-85
2022/06/02 01:09:06;;;;;;;3.60;2.50;;;;;;;;;;5012490;28;20477;-85
2022/06/02 01:11:57;;;;;;;4.63;2.75;;;;;;;;;;4999350;28;20541;-85
2022/06/02 01:15:07;;;;;;;4.18;2.20;;;;;;;;;;4987746;28;20037;-84
2022/06/02 01:17:39;;;;;;;4.55;2.38;;;;;;;;;;4991402;28;20129;-83
2022/06/02 01:20:23;;;;;;;2.90;2.20;;;;;;;;;;4994157;28;20046;-84
2022/06/02 01:23:15;;;;;;;5.47;2.67;;;;;;;;;;5011935;28;20022;-84
2022/06/02 01:26:08;;;;;;;5.25;2.30;;;;;;;;;;4994473;28;20025;-84
2022/06/02 01:29:04;;;;;;;5.07;2.47;;;;;;;;;;5011751;28;20077;-83
2022/06/02 01:32:02;;;;;;;6.03;2.95;;;;;;;;;;5009926;28;20026;-84
2022/06/02 01:34:40;;;;;;;6.40;2.33;;;;;;;;;;4993577;28;20087;-84
2022/06/02 01:37:22;;;;;;;7.30;2.50;;;;;;;;;;4994563;28;20045;-84
2022/06/02 01:40:32;;;;;;;5.13;2.33;;;;;;;;;;4992854;28;20485;-85
2022/06/02 01:43:20;;;;;;;5.63;2.38;;;;;;;;;;5012289;28;20029;-84
2022/06/02 01:46:07;;;;;;;3.60;2.53;;;;;;;;;;4991205;28;20494;-84
2022/06/02 01:48:49;;;;;;;4.57;2.20;;;;;;;;;;5007997;28;20036;-84
2022/06/02 01:51:39;;;;;;;4.55;2.55;;;;;;;;;;4987864;28;20037;-83
2022/06/02 01:54:19;;;;;;;4.57;2.15;;;;;;;;;;5007940;28;20025;-83
2022/06/02 01:56:57;;;;;;;5.00;2.55;;;;;;;;;;5009112;28;20028;-82
2022/06/02 01:59:40;;;;;;;4.82;2.88;;;;;;;;;;4988565;28;20088;-84
2022/06/02 02:02:27;;;;;;;5.40;2.75;;;;;;;;;;4992114;28;20040;-84
2022/06/02 02:05:13;;;;;;;5.32;2.38;;;;;;;;;;5007764;28;20530;-83
2022/06/02 02:08:12;;;;;;;6.00;2.85;;;;;;;;;;4989558;28;20026;-84
2022/06/02 02:10:57;;;;;;;4.88;2.65;;;;;;;;;;5012705;28;20096;-82
2022/06/02 02:13:47;;;;;;;6.43;2.70;;;;;;;;;;5014371;28;20032;-82
2022/06/02 02:16:32;;;;;;;5.10;2.40;;;;;;;;;;5015312;28;20053;-82
2022/06/02 02:19:12;;;;;;;4.50;2.40;;;;;;;;;;5014599;28;20030;-82
2022/06/02 02:21:55;;;;;;;7.85;3.20;;;;;;;;;;5011684;28;20818;-82
2022/06/02 02:24:47;;;;;;;5.38;2.55;;;;;;;;;;4995127;28;20088;-83
2022/06/02 02:27:18;;;;;;;5.15;2.60;;;;;;;;;;4996632;28;20038;-82
2022/06/02 02:29:43;;;;;;;6.68;2.95;;;;;;;;;;5014807;28;20032;-84
2022/06/02 02:32:09;;;;;;;3.47;2.30;;;;;;;;;;4996394;28;20042;-83
2022/06/02 02:34:56;;;;;;;3.70;2.60;;;;;;;;;;4997074;28;20034;-83
2022/06/02 02:37:36;;;;;;;4.60;2.70;;;;;;;;;;4995823;28;20377;-85
2022/06/02 02:40:27;;;;;;;4.38;2.42;;;;;;;;;;5011798;28;20044;-84
2022/06/02 02:43:01;;;;;;;4.40;2.70;;;;;;;;;;4994177;28;20474;-86
2022/06/02 02:45:40;;;;;;;5.50;2.78;;;;;;;;;;5012367;28;20030;-83
2022/06/02 02:48:12;;;;;;;5.13;2.85;;;;;;;;;;5012980;28;20029;-84
2022/06/02 02:50:53;;;;;;;5.50;2.55;;;;;;;;;;5012903;28;20410;-84
2022/06/02 02:53:26;;;;;;;6.47;2.83;;;;;;;;;;5012386;28;20060;-85
2022/06/02 02:56:30;;;;;;;4.47;2.90;;;;;;;;;;5014030;28;20113;-85
2022/06/02 02:58:59;;;;;;;4.18;2.80;;;;;;;;;;5014024;28;20557;-83
2022/06/02 03:01:52;;;;;;;6.50;2.80;;;;;;;;;;5011966;28;20405;-85
2022/06/02 03:04:21;;;;;;;4.97;2.95;;;;;;;;;;4994616;28;20496;-83
2022/06/02 03:06:54;;;;;;;7.13;3.33;;;;;;;;;;4997070;28;20033;-82
2022/06/02 03:10:05;;;;;;;4.50;2.53;;;;;;;;;;4996399;28;20029;-84
2022/06/02 03:13:24;;;;;;;6.35;2.50;;;;;;;;;;5010003;28;20034;-84
2022/06/02 03:16:02;;;;;;;;;;;;;;;;;;4969655;28;20398;-84
2022/06/02 03:32:29;;;;;;;6.03;3.15;;;;;;;;;;5067874;28;20383;-82
2022/06/02 03:35:22;;;;;;;4.13;2.53;;;;;;;;;;5050153;28;20342;-82
2022/06/02 03:37:56;;;;;;;5.75;2.92;;;;;;;;;;5044125;28;20060;-82
2022/06/02 03:40:47;;;;;;;5.32;2.70;;;;;;;;;;5051842;28;20211;-82
2022/06/02 03:44:11;;;;;;;5.43;2.30;;;;;;;;;;5053021;28;20408;-82
2022/06/02 03:46:48;;;;;;;7.05;2.97;;;;;;;;;;5028125;28;20588;-82
2022/06/02 03:49:19;;;;;;;3.58;2.45;;;;;;;;;;5016990;28;20025;-82
2022/06/02 03:51:51;;;;;;;5.40;2.85;;;;;;;;;;5068671;28;20037;-82
2022/06/02 03:54:43;;;;;;;4.65;2.72;;;;;;;;;;5045654;28;20051;-82
2022/06/02 03:57:33;;;;;;;6.35;3.05;;;;;;;;;;5053300;28;20032;-84
2022/06/02 04:00:10;;;;;;;4.10;2.90;;;;;;;;;;5052448;28;20017;-84
2022/06/02 04:02:53;;;;;;;6.07;2.78;;;;;;;;;;5046498;28;20030;-83
2022/06/02 04:05:34;;;;;;;4.50;2.72;;;;;;;;;;5048282;28;20028;-84
2022/06/02 04:08:14;;;;;;;7.30;3.05;;;;;;;;;;5047205;28;20122;-84
2022/06/02 04:11:12;;;;;;;4.60;3.15;;;;;;;;;;5047256;28;20388;-81
2022/06/02 04:14:04;;;;;;;6.07;3.25;;;;;;;;;;5044480;28;20025;-82
2022/06/02 04:31:38;;;;;;;7.43;3.88;;;;;;;;;;5106048;27;20388;-83
2022/06/02 04:34:12;;;;;;;13.55;4.63;;;;;;;;;;5104069;28;20032;-84
2022/06/02 04:37:00;;;;;;;6.70;4.82;;;;;;;;;;5105910;28;20058;-84
2022/06/02 04:39:40;;;;;;;8.02;4.80;;;;;;;;;;5106874;28;20023;-84
2022/06/02 04:42:20;;;;;;;7.75;4.75;;;;;;;;;;5102623;28;20055;-85
2022/06/02 04:45:18;;;;;;;9.48;5.30;;;;;;;;;;5103126;28;20036;-86
2022/06/02 04:47:51;;;;;;;10.32;5.13;;;;;;;;;;5092451;28;20043;-86
2022/06/02 04:50:27;;;;;;;6.30;4.88;;;;;;;;;;5108666;28;20493;-86
2022/06/02 04:53:24;;;;;;;8.40;5.20;;;;;;;;;;5102667;28;20027;-83
2022/06/02 04:56:19;;;;;;;5.95;4.25;;;;;;;;;;5108934;28;20059;-85
2022/06/02 04:59:03;;;;;;;8.50;4.32;;;;;;;;;;5103759;28;20501;-82
2022/06/02 05:01:41;;;;;;;6.13;4.05;;;;;;;;;;5105570;28;20084;-85
2022/06/02 05:04:22;;;;;;;5.40;4.18;;;;;;;;;;5107286;28;20027;-83
2022/06/02 05:07:11;;;;;;;7.60;4.88;;;;;;;;;;5104989;28;20034;-83
2022/06/02 05:10:11;;;;;;;9.43;5.30;;;;;;;;;;5107689;28;20020;-84
2022/06/02 05:12:55;;;;;;;7.00;4.95;;;;;;;;;;5094036;28;20048;-82
2022/06/02 05:15:39;;;;;;;9.30;5.55;;;;;;;;;;5103523;28;20028;-85
2022/06/02 05:18:33;;;;;;;10.32;5.35;;;;;;;;;;5102539;28;20062;-84
2022/06/02 05:21:33;;;;;;;7.75;5.47;;;;;;;;;;5096927;28;20390;-84
2022/06/02 05:24:22;;;;;;;11.20;5.72;;;;;;;;;;5106666;28;20020;-84
2022/06/02 05:27:35;;;;;;;9.75;5.32;;;;;;;;;;5098480;28;20040;-85
2022/06/02 05:30:33;;;;;;;9.60;5.15;;;;;;;;;;5025936;28;20540;-86
2022/06/02 05:33:16;;;;;;;9.27;5.28;;;;;;;;;;5080957;28;20444;-83
2022/06/02 05:35:53;;;;;;;11.63;5.95;;;;;;;;;;5089658;28;20024;-84
2022/06/02 05:38:30;;;;;;;7.32;5.28;;;;;;;;;;5091631;28;20071;-84
2022/06/02 05:41:01;;;;;;;10.60;5.35;;;;;;;;;;5088559;28;20024;-84
2022/06/02 05:43:36;;;;;;;8.68;5.13;;;;;;;;;;5087108;28;20043;-85
2022/06/02 05:46:13;;;;;;;10.45;6.07;;;;;;;;;;5084616;28;20028;-84
2022/06/02 05:48:42;;;;;;;10.98;5.93;;;;;;;;;;5089557;28;20028;-86
2022/06/02 05:51:24;;;;;;;7.45;6.32;;;;;;;;;;5078813;28;20021;-84
2022/06/02 05:54:11;;;;;;;9.15;5.45;;;;;;;;;;5091001;28;20422;-85
2022/06/02 05:56:42;;;;;;;10.10;5.93;;;;;;;;;;5092892;28;20510;-84
2022/06/02 05:59:08;;;;;;;11.57;6.00;;;;;;;;;;5091649;28;20024;-85
2022/06/02 06:01:59;;;;;;;12.70;6.63;;;;;;;;;;5088434;28;20372;-85
2022/06/02 06:04:28;;;;;;;11.70;6.82;;;;;;;;;;5081636;28;20499;-84
2022/06/02 06:07:19;;;;;;;12.80;7.03;;;;;;;;;;5090340;28;20028;-85
2022/06/02 06:10:09;;;;;;;12.55;6.88;;;;;;;;;;5091859;28;20020;-83
2022/06/02 06:13:04;;;;;;;9.13;6.22;;;;;;;;;;5090999;28;20023;-84
2022/06/02 06:15:54;;;;;;;8.07;6.20;;;;;;;;;;5091342;28;20379;-84
2022/06/02 06:18:31;;;;;;;11.20;6.45;;;;;;;;;;5091289;28;20027;-82
2022/06/02 06:20:56;;;;;;;7.80;5.38;;;;;;;;;;5090109;28;20076;-85
2022/06/02 06:23:56;;;;;;;10.18;5.20;;;;;;;;;;5089310;28;20480;-86
2022/06/02 06:26:33;;;;;;;9.88;4.90;;;;;;;;;;5089360;28;20032;-83
2022/06/02 06:29:14;;;;;;;6.68;4.72;;;;;;;;;;5089862;28;20558;-83
2022/06/02 06:32:01;;;;;;;9.63;5.22;;;;;;;;;;5087863;28;20430;-81
2022/06/02 06:34:35;;;;;;;6.90;4.90;;;;;;;;;;5082387;28;20115;-83
2022/06/02 06:37:31;;;;;;;6.70;4.60;;;;;;;;;;5090089;28;20032;-81
2022/06/02 06:40:07;;;;;;;8.23;4.32;;;;;;;;;;5093884;28;20459;-84
2022/06/02 06:42:47;;;;;;;7.43;4.45;;;;;;;;;;5084193;28;20093;-83
2022/06/02 06:45:31;;;;;;;9.13;4.97;;;;;;;;;;5088914;28;20020;-84
2022/06/02 06:48:12;;;;;;;9.05;4.93;;;;;;;;;;5086787;28;20016;-84
2022/06/02 06:50:44;;;;;;;9.02;4.15;;;;;;;;;;5090645;28;20036;-85
2022/06/02 06:53:24;;;;;;;7.82;4.80;;;;;;;;;;5087165;28;20379;-84
2022/06/02 06:55:53;;;;;;;10.20;4.43;;;;;;;;;;5084287;28;20048;-85
2022/06/02 06:58:43;;;;;;;7.93;4.50;;;;;;;;;;5087916;28;20032;-84
2022/06/02 07:01:11;;;;;;;8.68;4.28;;;;;;;;;;5087542;28;20429;-83
2022/06/02 07:04:00;;;;;;;7.80;4.20;;;;;;;;;;5093040;28;20085;-86
2022/06/02 07:06:34;;;;;;;6.07;4.15;;;;;;;;;;5092262;28;20036;-84
2022/06/02 07:09:09;;;;;;;6.38;4.55;;;;;;;;;;5087503;28;20051;-84
2022/06/02 07:14:53;;;;;;;9.38;6.85;;;;;;;;;;5092102;28;20372;-83
2022/06/02 07:17:35;;;;;;;14.65;8.18;;;;;;;;;;5090696;28;20027;-86
2022/06/02 07:20:06;;;;;;;9.10;6.72;;;;;;;;;;5087477;28;20027;-85
2022/06/02 07:22:42;;;;;;;7.35;3.92;;;;;;;;;;5083832;28;20468;-81
2022/06/02 07:25:32;;;;;;;7.85;4.57;;;;;;;;;;5084693;28;20035;-86
2022/06/02 07:28:15;;;;;;;9.13;3.80;;;;;;;;;;5084453;28;20024;-84
2022/06/02 07:30:47;;;;;;;6.25;4.20;;;;;;;;;;5084275;28;20403;-86
2022/06/02 07:33:32;;;;;;;5.85;3.50;;;;;;;;;;5084051;28;20031;-84
2022/06/02 07:36:35;;;;;;;6.18;3.45;;;;;;;;;;5084157;28;20089;-85
2022/06/02 07:39:25;;;;;;;8.27;4.20;;;;;;;;;;5087102;28;20031;-84
2022/06/02 07:42:09;;;;;;;10.40;4.35;;;;;;;;;;5091006;28;20381;-87
2022/06/02 07:45:11;;;;;;;4.85;3.85;;;;;;;;;;5088383;28;20115;-87
2022/06/02 07:48:04;;;;;;;6.47;3.70;;;;;;;;;;5090700;28;20024;-86
2022/06/02 07:50:33;;;;;;;11.82;4.15;;;;;;;;;;5083422;28;20032;-87
2022/06/02 07:53:12;;;;;;;8.65;4.82;;;;;;;;;;5087914;28;20028;-85
2022/06/02 07:56:31;;;;;;;7.95;4.38;;;;;;;;;;5089583;28;20024;-89
2022/06/02 07:59:12;;;;;;;6.40;4.65;;;;;;;;;;5068660;28;20024;-86
2022/06/02 08:02:35;;;;;;;10.95;4.68;;;;;;;;;;5069504;28;20032;-86
2022/06/02 08:05:14;;;;;;;7.03;4.25;;;;;;;;;;5026026;28;20043;-91
2022/06/02 08:07:54;;;;;;;6.65;4.07;;;;;;;;;;5088278;28;20425;-89
2022/06/02 08:10:41;;;;;;;7.82;3.83;;;;;;;;;;5086348;28;20467;-87
2022/06/02 08:13:16;;;;;;;8.70;4.38;;;;;;;;;;5087219;28;20028;-84
2022/06/02 08:15:53;;;;;;;11.70;4.05;;;;;;;;;;5088462;28;20042;-88
2022/06/02 08:18:48;;;;;;;8.20;4.60;;;;;;;;;;5088298;28;20077;-87
2022/06/02 08:21:37;;;;;;;4.40;3.10;;;;;;;;;;5085979;28;20383;-83
2022/06/02 08:24:18;;;;;;;5.20;3.42;;;;;;;;;;5088560;28;20107;-87
2022/06/02 08:26:52;;;;;;;6.00;3.30;;;;;;;;;;5089911;28;20398;-85
2022/06/02 08:29:38;;;;;;;8.60;3.35;;;;;;;;;;5087432;28;20107;-88
2022/06/02 08:32:41;;;;;;;9.85;3.35;;;;;;;;;;5087348;28;20032;-86
2022/06/02 08:35:25;;;;;;;8.40;3.42;;;;;;;;;;5084779;28;20048;-87
2022/06/02 08:38:07;;;;;;;6.03;3.13;;;;;;;;;;5083324;28;20023;-84
2022/06/02 08:40:54;;;;;;;4.22;2.70;;;;;;;;;;5081832;28;20032;-83
2022/06/02 08:43:51;;;;;;;9.30;3.38;;;;;;;;;;5079617;28;20487;-85
2022/06/02 08:46:35;;;;;;;7.43;3.55;;;;;;;;;;5083704;28;20024;-86
2022/06/02 08:49:06;;;;;;;4.30;2.88;;;;;;;;;;5087759;28;20063;-86
2022/06/02 08:52:09;;;;;;;4.88;2.90;;;;;;;;;;5090439;28;20440;-86
2022/06/02 08:55:09;;;;;;;6.20;3.30;;;;;;;;;;5088692;28;20463;-90
2022/06/02 08:58:12;;;;;;;8.20;2.72;;;;;;;;;;5088529;28;20368;-87
2022/06/02 09:01:09;;;;;;;5.03;2.67;;;;;;;;;;5090065;28;20024;-85
2022/06/02 09:04:11;;;;;;;2.60;1.80;;;;;;;;;;5083609;28;20471;-84
2022/06/02 09:06:49;;;;;;;4.68;2.13;;;;;;;;;;5090010;28;20035;-85
2022/06/02 09:09:53;;;;;;;9.23;2.72;;;;;;;;;;5087493;28;20028;-84
2022/06/02 09:12:50;;;;;;;4.10;2.63;;;;;;;;;;5089643;28;20040;-86
2022/06/02 09:15:55;;;;;;;4.50;2.50;;;;;;;;;;5079510;28;20380;-84
2022/06/02 09:18:45;;;;;;;6.05;2.20;;;;;;;;;;5079953;28;20029;-83
2022/06/02 09:21:20;;;;;;;5.95;2.75;;;;;;;;;;5083569;28;20028;-85
2022/06/02 09:24:02;;;;;;;6.70;2.58;;;;;;;;;;5081789;28;20038;-86
2022/06/02 09:26:47;;;;;;;4.13;1.90;;;;;;;;;;5084388;28;20395;-85
2022/06/02 09:29:24;;;;;;;5.88;2.50;;;;;;;;;;5089200;28;20036;-86
2022/06/02 09:32:01;;;;;;;4.43;2.40;;;;;;;;;;5082758;28;20025;-85
2022/06/02 09:34:41;;;;;;;8.07;3.10;;;;;;;;;;5086773;28;20027;-86
2022/06/02 09:37:07;;;;;;;6.35;3.20;;;;;;;;;;5084925;28;20036;-86
2022/06/02 09:40:10;;;;;;;12.15;3.15;;;;;;;;;;5086575;28;20073;-86
2022/06/02 09:42:57;;;;;;;7.40;2.67;;;;;;;;;;5087088;28;20099;-86
2022/06/02 09:45:52;;;;;;;5.63;3.17;;;;;;;;;;5086065;28;20032;-86
2022/06/02 09:48:36;;;;;;;9.93;3.33;;;;;;;;;;5088639;28;20496;-85
2022/06/02 09:51:07;;;;;;;5.53;2.90;;;;;;;;;;5083121;28;20032;-85
2022/06/02 09:54:05;;;;;;;5.72;3.17;;;;;;;;;;5084199;28;20055;-84
2022/06/02 09:56:36;;;;;;;6.45;3.10;;;;;;;;;;5083646;28;20024;-86
2022/06/02 09:59:17;;;;;;;5.20;2.60;;;;;;;;;;5087115;28;20021;-87
2022/06/02 10:02:28;;;;;;;5.45;2.78;;;;;;;;;;5079867;28;20024;-85
2022/06/02 10:05:03;;;;;;;3.88;2.20;;;;;;;;;;5086852;28;20543;-86
2022/06/02 10:07:34;;;;;;;9.88;3.22;;;;;;;;;;5088297;28;20031;-86
2022/06/02 10:10:28;;;;;;;6.45;2.10;;;;;;;;;;5088026;28;20027;-85
2022/06/02 10:13:14;;;;;;;6.32;2.70;;;;;;;;;;5081657;28;20121;-84
2022/06/02 10:16:03;;;;;;;8.63;3.60;;;;;;;;;;5079946;28;20029;-85
2022/06/02 10:18:35;;;;;;;6.82;2.50;;;;;;;;;;5082424;28;20062;-83
2022/06/02 10:21:17;;;;;;;5.40;2.42;;;;;;;;;;5087254;28;20031;-86
2022/06/02 10:24:00;;;;;;;7.72;2.53;;;;;;;;;;5083320;28;20027;-82
2022/06/02 10:26:31;;;;;;;4.90;2.35;;;;;;;;;;5086692;28;20044;-85
2022/06/02 10:29:22;;;;;;;16.50;3.40;;;;;;;;;;5087255;28;20044;-82
2022/06/02 10:32:23;;;;;;;4.82;2.42;;;;;;;;;;5080252;28;20165;-84
2022/06/02 10:35:13;;;;;;;4.97;2.35;;;;;;;;;;5082551;28;20020;-81
2022/06/02 10:37:55;;;;;;;8.63;2.17;;;;;;;;;;5083792;28;20028;-81
2022/06/02 10:40:55;;;;;;;4.32;2.45;;;;;;;;;;5083433;28;20055;-81
2022/06/02 10:43:39;;;;;;;8.40;2.58;;;;;;;;;;5087017;28;20939;-85
2022/06/02 10:46:10;;;;;;;6.00;3.03;;;;;;;;;;5086224;28;20038;-84
2022/06/02 10:52:35;;;;;;;4.10;2.40;;;;;;;;;;5088125;28;20027;-83
2022/06/02 10:55:22;;;;;;;6.78;2.80;;;;;;;;;;5084703;28;20471;-85
2022/06/02 10:58:41;;;;;;;5.15;2.40;;;;;;;;;;5090712;28;20157;-81
2022/06/02 11:01:44;;;;;;;8.43;2.47;;;;;;;;;;5034160;28;20025;-83
2022/06/02 11:04:46;;;;;;;6.70;2.17;;;;;;;;;;5090227;28;20031;-83
2022/06/02 11:07:37;;;;;;;4.65;2.47;;;;;;;;;;5087435;28;20028;-84
2022/06/02 11:10:21;;;;;;;4.60;2.30;;;;;;;;;;5088272;28;20032;-83
2022/06/02 11:13:24;;;;;;;4.68;1.80;;;;;;;;;;5085065;28;20383;-83
2022/06/02 11:15:49;;;;;;;5.18;2.42;;;;;;;;;;5090228;28;20135;-83
2022/06/02 11:18:49;;;;;;;3.85;1.98;;;;;;;;;;5090938;28;20055;-83
2022/06/02 11:21:32;;;;;;;6.38;2.95;;;;;;;;;;5089439;28;20141;-84
2022/06/02 11:24:18;;;;;;;4.47;1.90;;;;;;;;;;5092205;28;20485;-83
2022/06/02 11:27:17;;;;;;;6.43;2.97;;;;;;;;;;5082536;28;20031;-82
2022/06/02 11:30:14;;;;;;;3.95;1.77;;;;;;;;;;5091244;28;20511;-83
2022/06/02 11:32:49;;;;;;;4.97;2.15;;;;;;;;;;5067639;28;20405;-84
2022/06/02 11:35:36;;;;;;;8.85;2.63;;;;;;;;;;5088941;28;20028;-82
2022/06/02 11:38:29;;;;;;;3.83;2.20;;;;;;;;;;5087704;28;20028;-83
2022/06/02 11:41:03;;;;;;;3.95;2.20;;;;;;;;;;5092426;28;20020;-81
2022/06/02 11:43:46;;;;;;;4.25;2.28;;;;;;;;;;5090715;28;20576;-83
2022/06/02 11:46:30;;;;;;;3.30;1.90;;;;;;;;;;5084191;28;20085;-82
2022/06/02 11:49:26;;;;;;;7.88;1.95;;;;;;;;;;5088783;28;20032;-82
2022/06/02 11:52:29;;;;;;;9.90;2.47;;;;;;;;;;5087540;28;20081;-84
2022/06/02 11:55:31;;;;;;;8.85;2.53;;;;;;;;;;5086805;28;20463;-84
2022/06/02 11:58:08;;;;;;;4.40;1.98;;;;;;;;;;5086897;28;20024;-83
2022/06/02 12:00:55;;;;;;;5.93;2.45;;;;;;;;;;5088183;28;20085;-81
2022/06/02 12:04:05;;;;;;;6.35;3.05;;;;;;;;;;5082846;28;20379;-82
2022/06/02 12:07:08;;;;;;;4.30;2.50;;;;;;;;;;5086127;28;20467;-82
2022/06/02 12:09:37;;;;;;;6.55;2.08;;;;;;;;;;5086224;28;20111;-82
2022/06/02 12:12:23;;;;;;;4.03;2.22;;;;;;;;;;5087823;28;20024;-81
2022/06/02 12:15:15;;;;;;;4.50;2.25;;;;;;;;;;5088080;28;20031;-81
2022/06/02 12:18:19;;;;;;;5.28;2.08;;;;;;;;;;5085059;28;20422;-81
2022/06/02 12:21:07;;;;;;;4.38;2.30;;;;;;;;;;5085512;28;20028;-80
2022/06/02 12:23:57;;;;;;;4.13;2.35;;;;;;;;;;5084046;28;20040;-80
2022/06/02 12:26:22;;;;;;;4.78;2.33;;;;;;;;;;5083906;28;20418;-82
2022/06/02 12:29:09;;;;;;;8.00;4.60;;;;;;;;;;5081932;28;20028;-81
2022/06/02 12:31:44;;;;;;;5.63;2.33;;;;;;;;;;5079955;28;20114;-81
2022/06/02 12:34:29;;;;;;;4.45;2.42;;;;;;;;;;5086750;28;20108;-83
2022/06/02 12:37:06;;;;;;;3.92;2.50;;;;;;;;;;5085765;28;20089;-81
2022/06/02 12:40:10;;;;;;;5.40;2.00;;;;;;;;;;5082469;28;20475;-82
2022/06/02 12:42:57;;;;;;;7.82;2.40;;;;;;;;;;5088669;28;20079;-79
2022/06/02 12:45:53;;;;;;;5.47;2.25;;;;;;;;;;5085695;28;20530;-81
2022/06/02 12:48:41;;;;;;;5.43;2.63;;;;;;;;;;5089625;28;20103;-81
2022/06/02 12:51:23;;;;;;;4.68;2.60;;;;;;;;;;5088284;28;20485;-81
2022/06/02 12:54:22;;;;;;;6.25;2.67;;;;;;;;;;5087053;28;20035;-82
2022/06/02 12:57:09;;;;;;;4.38;2.17;;;;;;;;;;5088439;28;20038;-82
2022/06/02 12:59:48;;;;;;;4.78;2.40;;;;;;;;;;5085534;28;20038;-82
2022/06/02 13:02:40;;;;;;;7.60;2.58;;;;;;;;;;5085791;28;20495;-81
2022/06/02 13:05:28;;;;;;;3.92;2.40;;;;;;;;;;5087464;28;20142;-83
2022/06/02 13:08:11;;;;;;;5.65;2.45;;;;;;;;;;5089983;28;20103;-82
2022/06/02 13:11:01;;;;;;;4.05;2.30;;;;;;;;;;5089836;28;20126;-82
2022/06/02 13:13:43;;;;;;;4.50;2.30;;;;;;;;;;5087337;28;20046;-81
2022/06/02 13:16:46;;;;;;;3.00;2.08;;;;;;;;;;5085345;28;20024;-83
2022/06/02 13:19:14;;;;;;;5.03;2.42;;;;;;;;;;5085847;28;20027;-81
2022/06/02 13:21:49;;;;;;;7.28;2.70;;;;;;;;;;5092257;28;20032;-83
2022/06/02 13:24:45;;;;;;;6.90;2.75;;;;;;;;;;5092860;28;20072;-83
2022/06/02 13:27:32;;;;;;;6.00;3.30;;;;;;;;;;5086950;28;20042;-84
2022/06/02 13:30:23;;;;;;;6.28;2.83;;;;;;;;;;5087819;28;20036;-82
2022/06/02 13:33:06;;;;;;;6.65;2.80;;;;;;;;;;5090621;28;20384;-82
2022/06/02 13:35:50;;;;;;;5.72;2.60;;;;;;;;;;5088080;28;20031;-84
2022/06/02 13:38:46;;;;;;;5.35;2.45;;;;;;;;;;5090308;28;20031;-82
2022/06/02 13:41:12;;;;;;;9.80;3.08;;;;;;;;;;5087949;28;20040;-82
2022/06/02 13:44:01;;;;;;;8.48;2.92;;;;;;;;;;5086857;28;20027;-82
2022/06/02 13:47:15;;;;;;;9.52;3.55;;;;;;;;;;5089104;28;20479;-83
2022/06/02 13:50:02;;;;;;;7.88;3.20;;;;;;;;;;5089834;28;20020;-84
2022/06/02 13:52:46;;;;;;;11.07;3.25;;;;;;;;;;5085072;28;20054;-80
2022/06/02 13:58:26;;;;;;;6.72;2.90;;;;;;;;;;5066610;28;20039;-80
2022/06/02 14:01:16;;;;;;;4.70;2.65;;;;;;;;;;5084209;28;20431;-84
2022/06/02 14:04:03;;;;;;;4.78;2.53;;;;;;;;;;5083184;28;20027;-80
2022/06/02 14:06:36;;;;;;;6.20;3.03;;;;;;;;;;5086989;28;20020;-81
2022/06/02 14:09:26;;;;;;;6.53;2.88;;;;;;;;;;5087992;28;20024;-84
2022/06/02 14:12:29;;;;;;;3.83;2.70;;;;;;;;;;5085818;28;20442;-84
2022/06/02 14:15:13;;;;;;;10.77;3.17;;;;;;;;;;5085202;28;20051;-81
2022/06/02 14:18:14;;;;;;;4.53;2.88;;;;;;;;;;5085740;28;20047;-81
2022/06/02 14:21:03;;;;;;;5.45;2.63;;;;;;;;;;5080699;28;20096;-81
2022/06/02 14:23:40;;;;;;;6.75;2.50;;;;;;;;;;5084319;28;20038;-81
2022/06/02 14:26:05;;;;;;;6.32;2.80;;;;;;;;;;5085520;28;20036;-81
2022/06/02 14:28:43;;;;;;;6.82;2.50;;;;;;;;;;5086946;28;20103;-80
2022/06/02 14:31:15;;;;;;;6.57;2.75;;;;;;;;;;5083870;28;20105;-81
2022/06/02 14:33:45;;;;;;;5.05;2.63;;;;;;;;;;5089442;28;20404;-82
2022/06/02 14:36:29;;;;;;;4.75;2.40;;;;;;;;;;5087718;28;20085;-82
2022/06/02 14:39:12;;;;;;;4.55;2.22;;;;;;;;;;5086355;28;20028;-83
2022/06/02 14:41:52;;;;;;;4.28;2.47;;;;;;;;;;5090033;28;20047;-82
2022/06/02 14:44:31;;;;;;;6.30;3.20;;;;;;;;;;5090014;28;20081;-85
2022/06/02 14:47:19;;;;;;;7.22;3.08;;;;;;;;;;5089367;28;20043;-83
2022/06/02 14:50:17;;;;;;;7.78;2.63;;;;;;;;;;5087824;28;20032;-81
2022/06/02 14:53:00;;;;;;;5.03;2.67;;;;;;;;;;5089044;28;20472;-84
2022/06/02 14:55:56;;;;;;;4.82;2.80;;;;;;;;;;5088147;28;20027;-83
2022/06/02 14:59:06;;;;;;;4.00;2.35;;;;;;;;;;5088183;28;20154;-81
2022/06/02 15:01:43;;;;;;;5.93;2.30;;;;;;;;;;5088495;28;20097;-83
2022/06/02 15:04:45;;;;;;;6.90;2.83;;;;;;;;;;5090883;28;20032;-81
2022/06/02 15:07:36;;;;;;;3.95;2.85;;;;;;;;;;5090120;28;20028;-80
2022/06/02 15:10:26;;;;;;;4.43;2.92;;;;;;;;;;5085309;28;20649;-81
2022/06/02 15:13:18;;;;;;;4.05;2.58;;;;;;;;;;5089423;28;20027;-82
2022/06/02 15:16:08;;;;;;;4.90;2.60;;;;;;;;;;5088637;28;20468;-81
2022/06/02 15:19:02;;;;;;;5.05;3.03;;;;;;;;;;5085035;28;20124;-82
2022/06/02 15:21:47;;;;;;;7.18;2.67;;;;;;;;;;5082290;28;20035;-81
2022/06/02 15:24:37;;;;;;;6.70;2.85;;;;;;;;;;5084184;28;20036;-82
2022/06/02 15:27:21;;;;;;;5.53;2.78;;;;;;;;;;5083530;28;20106;-82
2022/06/02 15:30:08;;;;;;;6.25;2.70;;;;;;;;;;5082520;28;20059;-80
2022/06/02 15:32:45;;;;;;;5.05;2.97;;;;;;;;;;5085151;28;20044;-81
2022/06/02 15:35:38;;;;;;;5.15;2.50;;;;;;;;;;5082374;28;20024;-82
2022/06/02 15:38:07;;;;;;;4.40;2.70;;;;;;;;;;5085241;28;20208;-82
2022/06/02 15:41:03;;;;;;;4.32;2.50;;;;;;;;;;5080179;28;20027;-81
2022/06/02 15:43:43;;;;;;;3.58;2.75;;;;;;;;;;5082075;28;20028;-82
2022/06/02 15:47:09;;;;;;;4.22;2.83;;;;;;;;;;5081499;28;20108;-81
2022/06/02 15:50:12;;;;;;;4.95;2.33;;;;;;;;;;5074598;28;20035;-82
2022/06/02 15:52:56;;;;;;;5.75;2.80;;;;;;;;;;5080550;28;20024;-83
2022/06/02 15:55:52;;;;;;;7.35;2.70;;;;;;;;;;5085199;28;20027;-82
2022/06/02 15:58:42;;;;;;;6.20;2.97;;;;;;;;;;5087572;28;20058;-83
2022/06/02 16:01:26;;;;;;;;;;;;;;;;;;5068700;28;20048;-83
2022/06/02 16:04:13;;;;;;;7.93;2.58;;;;;;;;;;5088030;28;19969;-83
2022/06/02 16:06:44;;;;;;;4.95;3.33;;;;;;;;;;5087039;28;20024;-83
2022/06/02 16:13:02;;;;;;;3.83;2.28;;;;;;;;;;5086456;28;20039;-84
2022/06/02 16:15:41;;;;;;;4.68;2.47;;;;;;;;;;5089022;28;20450;-83
2022/06/02 16:18:31;;;;;;;4.70;2.50;;;;;;;;;;5087317;28;20024;-83
2022/06/02 16:21:21;;;;;;;6.13;2.38;;;;;;;;;;5085816;28;20361;-83
2022/06/02 16:24:20;;;;;;;3.95;2.65;;;;;;;;;;5087211;28;20089;-83
2022/06/02 16:26:54;;;;;;;5.47;2.70;;;;;;;;;;5086397;28;20028;-83
2022/06/02 16:29:50;;;;;;;4.13;2.40;;;;;;;;;;5088051;28;20028;-83
2022/06/02 16:32:30;;;;;;;4.10;2.70;;;;;;;;;;5089309;28;20032;-82
2022/06/02 16:35:23;;;;;;;7.05;2.70;;;;;;;;;;5089922;28;20024;-83
2022/06/02 16:38:28;;;;;;;6.63;2.85;;;;;;;;;;5085139;28;20032;-83
2022/06/02 16:41:28;;;;;;;6.35;2.90;;;;;;;;;;5088317;28;20024;-83
2022/06/02 16:43:56;;;;;;;7.20;2.65;;;;;;;;;;5089471;28;20028;-84
2022/06/02 16:46:24;;;;;;;4.53;2.97;;;;;;;;;;5090866;28;20054;-85
2022/06/02 16:48:52;;;;;;;6.55;2.75;;;;;;;;;;5091211;28;20069;-83
2022/06/02 16:51:21;;;;;;;7.80;3.00;;;;;;;;;;5088483;28;20035;-83
2022/06/02 16:53:58;;;;;;;6.13;2.85;;;;;;;;;;5088414;28;20384;-84
2022/06/02 16:56:35;;;;;;;6.43;3.22;;;;;;;;;;5090031;28;20016;-83
2022/06/02 16:59:04;;;;;;;5.13;2.90;;;;;;;;;;5090927;28;20494;-83
2022/06/02 17:02:09;;;;;;;4.68;2.83;;;;;;;;;;5090933;28;20032;-83
2022/06/02 17:05:07;;;;;;;7.85;3.33;;;;;;;;;;5085472;28;20024;-83
2022/06/02 17:07:33;;;;;;;5.93;2.58;;;;;;;;;;5090578;28;20031;-81
2022/06/02 17:10:24;;;;;;;3.92;2.78;;;;;;;;;;5090722;28;20024;-82
2022/06/02 17:13:12;;;;;;;4.20;2.70;;;;;;;;;;5085664;28;20027;-83
2022/06/02 17:16:15;;;;;;;9.40;4.03;;;;;;;;;;5087759;28;20487;-83
2022/06/02 17:19:13;;;;;;;4.43;3.35;;;;;;;;;;5089617;28;20020;-83